ADDS METAR Data INFO
IDs: Format: Raw Decoded Include TAF

Data at: 0612 UTC 25 Jun 2018

METAR for:KSPB (Scappoose Ind Airpar, OR, US)
Text:KSPB 250553Z AUTO 28015G21KT 10SM FEW120 16/11 A2993 RMK AO2 SLP133 T01610106 10311 20161 51052
Temperature: 16.1°C ( 61°F)
Dewpoint: 10.6°C ( 51°F) [RH = 70%]
Pressure (altimeter):29.93 inches Hg (1013.6 mb) [Sea level pressure: 1013.3 mb]
Winds:from the W (280 degrees) at 17 MPH (15 knots; 7.7 m/s) gusting to 24 MPH (21 knots; 10.8 m/s)
Visibility:10 or more sm (16+ km)
Ceiling:at least 12,000 feet AGL
Clouds: few clouds at 12000 feet AGL
QC Flag:automated observation with no human augmentation